地図

経路データ

SID SEASON NUMBER BASIN SUBBASIN NAME ISO_TIME NATURE LAT LON WMO_WIND WMO_PRES WMO_AGENCY TRACK_TYPE DIST2LAND LANDFALL IFLAG USA_AGENCY USA_ATCF_ID USA_LAT USA_LON USA_RECORD USA_STATUS USA_WIND USA_PRES USA_SSHS USA_R34_NE USA_R34_SE USA_R34_SW USA_R34_NW USA_R50_NE USA_R50_SE USA_R50_SW USA_R50_NW USA_R64_NE USA_R64_SE USA_R64_SW USA_R64_NW USA_POCI USA_ROCI USA_RMW USA_EYE TOKYO_LAT TOKYO_LON TOKYO_GRADE TOKYO_WIND TOKYO_PRES TOKYO_R50_DIR TOKYO_R50_LONG TOKYO_R50_SHORT TOKYO_R30_DIR TOKYO_R30_LONG TOKYO_R30_SHORT TOKYO_LAND CMA_LAT CMA_LON CMA_CAT CMA_WIND CMA_PRES HKO_LAT HKO_LON HKO_CAT HKO_WIND HKO_PRES NEWDELHI_LAT NEWDELHI_LON NEWDELHI_GRADE NEWDELHI_WIND NEWDELHI_PRES NEWDELHI_CI NEWDELHI_DP NEWDELHI_POCI REUNION_LAT REUNION_LON REUNION_TYPE REUNION_WIND REUNION_PRES REUNION_TNUM REUNION_CI REUNION_RMW REUNION_R34_NE REUNION_R34_SE REUNION_R34_SW REUNION_R34_NW REUNION_R50_NE REUNION_R50_SE REUNION_R50_SW REUNION_R50_NW REUNION_R64_NE REUNION_R64_SE REUNION_R64_SW REUNION_R64_NW BOM_LAT BOM_LON BOM_TYPE BOM_WIND BOM_PRES BOM_TNUM BOM_CI BOM_RMW BOM_R34_NE BOM_R34_SE BOM_R34_SW BOM_R34_NW BOM_R50_NE BOM_R50_SE BOM_R50_SW BOM_R50_NW BOM_R64_NE BOM_R64_SE BOM_R64_SW BOM_R64_NW BOM_ROCI BOM_POCI BOM_EYE BOM_POS_METHOD BOM_PRES_METHOD NADI_LAT NADI_LON NADI_CAT NADI_WIND NADI_PRES WELLINGTON_LAT WELLINGTON_LON WELLINGTON_WIND WELLINGTON_PRES DS824_LAT DS824_LON DS824_STAGE DS824_WIND DS824_PRES TD9636_LAT TD9636_LON TD9636_STAGE TD9636_WIND TD9636_PRES TD9635_LAT TD9635_LON TD9635_WIND TD9635_PRES TD9635_ROCI NEUMANN_LAT NEUMANN_LON NEUMANN_CLASS NEUMANN_WIND NEUMANN_PRES MLC_LAT MLC_LON MLC_CLASS MLC_WIND MLC_PRES USA_GUST BOM_GUST BOM_GUST_PER REUNION_GUST REUNION_GUST_PER USA_SEAHGT USA_SEARAD_NE USA_SEARAD_SE USA_SEARAD_SW USA_SEARAD_NW STORM_SPEED STORM_DIR
1895255N30306 1895 32 NA NA NOT_NAMED 1895-09-11 12:00:00 TS 29.5000 -54.0000 main 1708 1663 _____________O -1 29.5000 -54.0000 TD 30 12 189
1895255N30306 1895 32 NA NA NOT_NAMED 1895-09-11 15:00:00 TS 28.9225 -54.1103 main 1655 1603 _____________P -1 28.9225 -54.1103 TD 32 12 188
1895255N30306 1895 32 NA NA NOT_NAMED 1895-09-11 18:00:00 TS 28.3000 -54.2000 main 1603 1552 _____________O -1 28.3000 -54.2000 TS 35 13 186
1895255N30306 1895 32 NA NA NOT_NAMED 1895-09-11 21:00:00 TS 27.6450 -54.2574 main 1545 1517 _____________P -1 27.6450 -54.2574 TS 37 11 185
1895255N30306 1895 32 NA NA NOT_NAMED 1895-09-12 00:00:00 TS 27.2000 -54.3000 main 1517 1517 _____________O -1 27.2000 -54.3000 TS 40 4 190
1895255N30306 1895 32 NA NA NOT_NAMED 1895-09-12 03:00:00 TS 27.2100 -54.3499 main 1517 1509 _____________P -1 27.2100 -54.3499 TS 42 2 335
1895255N30306 1895 32 NA NA NOT_NAMED 1895-09-12 06:00:00 TS 27.4000 -54.4000 main 1523 1523 _____________O -1 27.4000 -54.4000 TS 45 3 345
1895255N30306 1895 32 NA NA NOT_NAMED 1895-09-12 09:00:00 TS 27.4574 -54.4275 main 1530 1523 _____________P -1 27.4574 -54.4275 TS 47 1 320
1895255N30306 1895 32 NA NA NOT_NAMED 1895-09-12 12:00:00 TS 27.5000 -54.5000 main 1523 1508 _____________O -1 27.5000 -54.5000 TS 50 2 293
1895255N30306 1895 32 NA NA NOT_NAMED 1895-09-12 15:00:00 TS 27.5500 -54.6775 main 1515 1500 _____________P -1 27.5500 -54.6775 TS 52 4 286
1895255N30306 1895 32 NA NA NOT_NAMED 1895-09-12 18:00:00 TS 27.6000 -54.9000 main 1500 1485 _____________O -1 27.6000 -54.9000 TS 55 4 284
1895255N30306 1895 32 NA NA NOT_NAMED 1895-09-12 21:00:00 TS 27.6425 -55.1001 main 1485 1478 _____________P -1 27.6425 -55.1001 TS 57 4 286
1895255N30306 1895 32 NA NA NOT_NAMED 1895-09-13 00:00:00 TS 27.7000 -55.3000 main 1478 1471 _____________O -1 27.7000 -55.3000 TS 60 4 294
1895255N30306 1895 32 NA NA NOT_NAMED 1895-09-13 03:00:00 TS 27.8000 -55.5074 main 1471 1464 _____________P -1 27.8000 -55.5074 TS 62 4 299
1895255N30306 1895 32 NA NA NOT_NAMED 1895-09-13 06:00:00 TS 27.9000 -55.7000 main 1465 1458 _____________O -1 27.9000 -55.7000 HU 65 3 296
1895255N30306 1895 32 NA NA NOT_NAMED 1895-09-13 09:00:00 TS 27.9424 -55.8427 main 1458 1451 _____________P -1 27.9424 -55.8427 HU 67 3 291
1895255N30306 1895 32 NA NA NOT_NAMED 1895-09-13 12:00:00 TS 28.0000 -56.0000 main 1452 1445 _____________O -1 28.0000 -56.0000 HU 70 4 300
1895255N30306 1895 32 NA NA NOT_NAMED 1895-09-13 15:00:00 TS 28.1425 -56.2349 main 1446 1441 _____________P -1 28.1425 -56.2349 HU 72 5 304
1895255N30306 1895 32 NA NA NOT_NAMED 1895-09-13 18:00:00 TS 28.3000 -56.5000 main 1443 1436 _____________O -1 28.3000 -56.5000 HU 75 5 300
1895255N30306 1895 32 NA NA NOT_NAMED 1895-09-13 21:00:00 TS 28.4000 -56.7502 main 1432 1425 _____________P -1 28.4000 -56.7502 HU 75 5 294
1895255N30306 1895 32 NA NA NOT_NAMED 1895-09-14 00:00:00 TS 28.5000 -57.0000 main 1428 1421 _____________O -1 28.5000 -57.0000 HU 75 5 300
1895255N30306 1895 32 NA NA NOT_NAMED 1895-09-14 03:00:00 TS 28.6500 -57.2500 main 1424 1421 _____________P -1 28.6500 -57.2500 HU 75 5 304
1895255N30306 1895 32 NA NA NOT_NAMED 1895-09-14 06:00:00 TS 28.8000 -57.5000 main 1424 1418 _____________O -1 28.8000 -57.5000 HU 75 5 300
1895255N30306 1895 32 NA NA NOT_NAMED 1895-09-14 09:00:00 TS 28.8846 -57.7055 main 1421 1410 _____________P -1 28.8846 -57.7055 HU 75 5 295
1895255N30306 1895 32 NA NA NOT_NAMED 1895-09-14 12:00:00 TS 29.0000 -58.0000 main 1413 1405 _____________O -1 29.0000 -58.0000 HU 75 8 296
1895255N30306 1895 32 NA NA NOT_NAMED 1895-09-14 15:00:00 TS 29.2277 -58.5047 main 1405 1399 _____________P -1 29.2277 -58.5047 HU 72 11 298
1895255N30306 1895 32 NA NA NOT_NAMED 1895-09-14 18:00:00 TS 29.5000 -59.1000 main 1404 1399 _____________O -1 29.5000 -59.1000 HU 70 11 297
1895255N30306 1895 32 NA NA NOT_NAMED 1895-09-14 21:00:00 TS 29.7501 -59.6800 main 1406 1398 _____________P -1 29.7501 -59.6800 HU 70 11 298
1895255N30306 1895 32 NA NA NOT_NAMED 1895-09-15 00:00:00 TS 30.0000 -60.2000 main 1406 1402 _____________O -1 30.0000 -60.2000 HU 70 9 302
1895255N30306 1895 32 NA NA NOT_NAMED 1895-09-15 03:00:00 TS 30.2497 -60.5878 main 1411 1411 _____________P -1 30.2497 -60.5878 HU 67 8 310
1895255N30306 1895 32 NA NA NOT_NAMED 1895-09-15 06:00:00 TS 30.5000 -60.9000 main 1432 1429 _____________O -1 30.5000 -60.9000 HU 65 8 309
1895255N30306 1895 32 NA NA NOT_NAMED 1895-09-15 09:00:00 TS 30.7500 -61.2970 main 1428 1401 _____________P -1 30.7500 -61.2970 HU 62 7 314
1895255N30306 1895 32 NA NA NOT_NAMED 1895-09-15 12:00:00 TS 31.0000 -61.5000 main 1401 1396 _____________O -1 31.0000 -61.5000 TS 60 5 2
1895255N30306 1895 32 NA NA NOT_NAMED 1895-09-15 15:00:00 TS 31.2501 -61.2905 main 1392 1388 _____________P -1 31.2501 -61.2905 TS 60 7 46
1895255N30306 1895 32 NA NA NOT_NAMED 1895-09-15 18:00:00 TS 31.5000 -60.9000 main 1390 1374 _____________O -1 31.5000 -60.9000 TS 60 8 50
1895255N30306 1895 32 NA NA NOT_NAMED 1895-09-15 21:00:00 TS 31.7499 -60.5998 main 1376 1352 _____________P -1 31.7499 -60.5998 TS 57 7 46
1895255N30306 1895 32 NA NA NOT_NAMED 1895-09-16 00:00:00 TS 32.0000 -60.3000 main 1352 1337 _____________O -1 32.0000 -60.3000 TS 55 7 45
1895255N30306 1895 32 NA NA NOT_NAMED 1895-09-16 03:00:00 TS 32.2499 -60.0073 main 1340 1315 _____________P -1 32.2499 -60.0073 TS 52 7 45
1895255N30306 1895 32 NA NA NOT_NAMED 1895-09-16 06:00:00 TS 32.5000 -59.7000 main 1318 1307 _____________O -1 32.5000 -59.7000 TS 50 8 52
1895255N30306 1895 32 NA NA NOT_NAMED 1895-09-16 09:00:00 TS 32.7353 -59.2830 main 1310 1290 _____________P -1 32.7353 -59.2830 TS 47 8 50
1895255N30306 1895 32 NA NA NOT_NAMED 1895-09-16 12:00:00 TS 33.0000 -59.0000 main 1290 1256 _____________O -1 33.0000 -59.0000 TS 45 6 16
1895255N30306 1895 32 NA NA NOT_NAMED 1895-09-16 15:00:00 TS 33.3425 -59.0817 main 1256 1207 _____________P -1 33.3425 -59.0817 TS 45 7 340
1895255N30306 1895 32 NA NA NOT_NAMED 1895-09-16 18:00:00 TS 33.7000 -59.3000 main 1207 1173 _____________O -1 33.7000 -59.3000 TS 45 7 338
1895255N30306 1895 32 NA NA NOT_NAMED 1895-09-16 21:00:00 TS 34.0074 -59.4003 main 1173 1139 _____________P -1 34.0074 -59.4003 TS 45 6 344
1895255N30306 1895 32 NA NA NOT_NAMED 1895-09-17 00:00:00 TS 34.3000 -59.5000 main 1139 1104 _____________O -1 34.3000 -59.5000 TS 45 6 341
1895255N30306 1895 32 NA NA NOT_NAMED 1895-09-17 03:00:00 TS 34.6000 -59.6499 main 1104 1066 _____________P -1 34.6000 -59.6499 TS 45 7 338
1895255N30306 1895 32 NA NA NOT_NAMED 1895-09-17 06:00:00 TS 34.9000 -59.8000 main 1066 1029 _____________O -1 34.9000 -59.8000 TS 45 6 334
1895255N30306 1895 32 NA NA NOT_NAMED 1895-09-17 09:00:00 TS 35.1772 -59.9964 main 1029 998 _____________P -1 35.1772 -59.9964 TS 45 6 345
1895255N30306 1895 32 NA NA NOT_NAMED 1895-09-17 12:00:00 TS 35.5000 -60.0000 main 998 970 _____________O -1 35.5000 -60.0000 TS 45 8 22
1895255N30306 1895 32 NA NA NOT_NAMED 1895-09-17 15:00:00 TS 35.9274 -59.6278 main 975 953 _____________P -1 35.9274 -59.6278 TS 45 12 42
1895255N30306 1895 32 NA NA NOT_NAMED 1895-09-17 18:00:00 TS 36.4000 -59.0000 main 953 940 _____________O -1 36.4000 -59.0000 TS 45 13 47
1895255N30306 1895 32 NA NA NOT_NAMED 1895-09-17 21:00:00 TS 36.8080 -58.4466 main 946 925 _____________P -1 36.8080 -58.4466 TS 42 15 53
1895255N30306 1895 32 NA NA NOT_NAMED 1895-09-18 00:00:00 TS 37.3000 -57.5000 main 928 911 _____________O -1 37.3000 -57.5000 TS 40 24 61
1895255N30306 1895 32 NA NA NOT_NAMED 1895-09-18 03:00:00 TS 37.9731 -55.8250 main 912 889 _____________P -1 37.9731 -55.8250 TS 37 32 64
1895255N30306 1895 32 NA NA NOT_NAMED 1895-09-18 06:00:00 ET 38.7000 -53.8000 main 878 773 _____________O -1 38.7000 -53.8000 EX 35 42 64
1895255N30306 1895 32 NA NA NOT_NAMED 1895-09-18 09:00:00 ET 39.8629 -50.9556 main 765 756 _____________P -1 39.8629 -50.9556 EX 32 32 66
1895255N30306 1895 32 NA NA NOT_NAMED 1895-09-18 12:00:00 ET 40.0000 -50.0000 main 777 777 _____________O -1 40.0000 -50.0000 EX 30 26 222
1895255N30306 1895 32 NA NA NOT_NAMED 1895-09-18 15:00:00 ET 37.9706 -53.1810 main 956 956 _____________P -1 37.9706 -53.1810 EX 32 88 230
1895255N30306 1895 32 NA NA NOT_NAMED 1895-09-18 18:00:00 ET 34.4000 -58.5000 main 1169 _____________O -1 34.4000 -58.5000 EX 35 112 231

IBTrACS Databaseについて

本データベースは、米国NOAAが公開する1842年以降の世界の熱帯低気圧のベストトラックデータアーカイブInternational Best Track Archive for Climate Stewardship (IBTrACS)を、ウェブで閲覧しやすい形式に変換したものです。

最終更新日:2021-12-03